Tiempo atmosférico en la estación meteorológica de Almendralejo, Badajoz (371 m.)



Fecha
DESCASC
Temp. máxima en grados centígrados (hora)
DESCASC
Temp. mínima en grados centígrados (hora)
DESCASC
Temp. media en grados centígrados
DESCASC
Racha de viento máxima en m/sg (hora)
DESCASC
Velocidad máxima media en intervalos de 10 minutos(hora)
DESCASC
Precipitaciones diarias en mm
DESCASC
Precipitaciones de 00:00 a 06:00 en mm
DESCASC
Precipitaciones de 06:00 a 12:00 en mm
DESCASC
Precipitaciones de 12:00 a 18:00 en mm
DESCASC
Precipitaciones de 18:00 a 24:00 en mm
DESCASC
15-08-2019 36.8 (16:50) 20.7 (07:50) 28.8 8.61 (14:50) 5.56 (23:30) 0 0 0 0 0
14-08-2019 35.3 (15:50) 17.9 (00:00) 26.6 8.61 (16:40) 5 (17:40) 0 0 0 0 0
13-08-2019 33.3 (17:50) 15.3 (00:00) 24.3 6.39 (15:40) 3.61 (18:10) 0 0 0 0 0
12-08-2019 29.7 (18:30) 13.7 (00:00) 21.7 11.67 (19:30) 6.11 (00:10) 0 0 0 0 0
11-08-2019 27.5 (16:10) 15 (00:00) 21.3 12.78 (16:30) 6.67 (00:50) 0 0 0 0 0
10-08-2019 31.6 (17:50) 16.5 (00:00) 24.1 10.28 (23:59) 6.67 (23:59) 0 0 0 0 0
09-08-2019 31.4 (14:50) 20.8 (00:00) 26.1 12.5 (16:20) 8.33 (15:50) 0 0 0 0 0
08-08-2019 35.7 (17:30) 18.2 (00:00) 27 11.11 (23:10) 7.78 (23:10) 0 0 0 0 0
07-08-2019 27.2 (20:20) 19.6 (00:00) 23.4 8.61 (00:30) 5.28 (00:40) 0 0 0 0 0
06-08-2019 35.3 (17:10) 17.5 (00:00) 26.4 10.56 (18:00) 6.67 (21:00) 0 0 0 0 0
05-08-2019 35 (16:50) 15.5 (00:00) 25.3 10.83 (18:10) 5.83 (19:30) 0 0 0 0 0
04-08-2019 34.9 (17:50) 17.5 (00:00) 26.2 10 (21:20) 6.39 (21:30) 0 0 0 0 0
03-08-2019 35.5 (17:50) 16.8 (00:00) 26.1 12.22 (15:20) 5.83 (16:00) 0 0 0 0 0
02-08-2019 34.2 (17:10) 14.9 (00:00) 24.6 9.17 (00:10) 5.83 (00:10) 0 0 0 0 0
01-08-2019 34.3 (18:00) 18.2 (00:00) 26.3 11.39 (16:50) 5.56 (23:00) 0 0 0 0 0
31-07-2019 34.9 (16:40) 15.2 (00:00) 25.1 11.11 (21:30) 7.5 (21:30) 0 0 0 0 0
30-07-2019 31.8 (18:20) 13.8 (00:00) 22.8 9.72 (15:00) 5.28 (01:00) 0 0 0 0 0
29-07-2019 30.8 (16:50) 15.5 (00:00) 23.1 10.83 (18:20) 7.22 (21:00) 0 0 0 0 0
28-07-2019 31.2 (16:50) 15.5 (00:00) 23.4 8.33 (23:59) 5.28 (23:59) 0 0 0 0 0
27-07-2019 25.9 (19:40) 15.5 (00:00) 20.7 11.94 (15:40) 7.22 (14:50) 0.2 0 0 0.2 0
26-07-2019 29.5 (17:50) 15.8 (00:00) 22.7 12.22 (13:40) 7.22 (20:20) 0 0 0 0 0
25-07-2019 34.5 (16:10) 20.8 (00:00) 27.6 12.78 (23:20) 8.33 (23:00) 0 0 0 0 0
24-07-2019 36.9 (15:10) 21.1 (00:00) 29 9.72 (17:30) 6.11 (23:50) 0 0 0 0 0
23-07-2019 37 (16:30) 22.5 (00:00) 29.8 10 (17:00) 6.11 (19:10) 0 0 0 0 0
22-07-2019 39.6 (18:40) 21.7 (00:00) 30.6 7.78 (21:00) 5.28 (20:50) 0 0 0 0 0
21-07-2019 37.4 (17:40) 18.6 (00:00) 28 9.17 (00:10) 6.67 (00:20) 0 0 0 0 0
20-07-2019 37.2 (17:30) 20.2 (00:00) 28.7 10.28 (23:20) 7.22 (23:20) 0 0 0 0 0
19-07-2019 39.2 (17:00) 20.4 (00:00) 29.8 10 (17:30) 6.11 (17:20) 0 0 0 0 0
18-07-2019 35.7 (18:50) 17.5 (00:00) 26.6 8.61 (00:40) 5.83 (00:40) 0 0 0 0 0

Gráficas

Temp. máximas Temp. mínimas Temp. medias Precipitaciones Rachas de viento máximas Velocidades máximas media en intervalos de 10 minutos

Datos horarios

Fecha y hora oficial Temperatura (ºC) Velocidad del viento (km/h) Dirección del viento Racha (km/h) Dirección de racha Precipitación (mm) Presión (hPa) Tendencia (hPa) Humedad (%)
2019-08-16 23:00:00 29.2 14 Noroeste 27 Noroeste 0 -- -- 32
2019-08-16 22:00:00 31.3 18 Norte 30 Norte 0 -- -- 29
2019-08-16 21:00:00 33.7 18 Norte 30 Norte 0 -- -- 24
2019-08-16 20:00:00 35.8 17 Noroeste 33 Norte 0 -- -- 24
2019-08-16 19:00:00 36.7 17 Norte 31 Norte 0 -- -- 22
2019-08-16 18:00:00 37.4 17 Norte 28 Norte 0 -- -- 23
2019-08-16 17:00:00 37.2 10 Noroeste 28 Noroeste 0 -- -- 24
2019-08-16 16:00:00 37 11 Noroeste 27 Noroeste 0 -- -- 26
2019-08-16 15:00:00 35.4 9 Noroeste 24 Oeste 0 -- -- 30
2019-08-16 14:00:00 34.6 9 Noroeste 21 Noroeste 0 -- -- 31
2019-08-16 13:00:00 32.3 10 Noroeste 18 Noroeste 0 -- -- 37
2019-08-16 12:00:00 29.7 7 Oeste 12 Noroeste 0 -- -- 42
2019-08-16 11:00:00 27 6 Noroeste 12 Noroeste 0 -- -- 48
2019-08-16 10:00:00 24.5 10 Noroeste 18 Noroeste 0 -- -- 55
2019-08-16 09:00:00 21.9 12 Noroeste 17 Noroeste 0 -- -- 62
2019-08-16 08:00:00 20.5 8 Noroeste 14 Noroeste 0 -- -- 65
2019-08-16 07:00:00 20.9 9 Noroeste 15 Noroeste 0 -- -- 63
2019-08-16 06:00:00 21.7 10 Noroeste 15 Noroeste 0 -- -- 60
2019-08-16 05:00:00 22.7 10 Noroeste 14 Noroeste 0 -- -- 55
2019-08-16 04:00:00 23.7 7 Noroeste 17 Noroeste 0 -- -- 52
2019-08-16 03:00:00 24.5 12 Noroeste 20 Noroeste 0 -- -- 49
2019-08-16 02:00:00 25.7 14 Noroeste 28 Noroeste 0 -- -- 46
2019-08-16 01:00:00 27.2 18 Noroeste 28 Noroeste 0 -- -- 41
2019-08-16 00:00:00 28.9 16 Noroeste 30 Noroeste 0 -- -- 36
2019-08-15 23:00:00 30.7 16 Noroeste 28 Norte 0 -- -- 33
2019-08-15 22:00:00 32.2 9 Noroeste 14 Noroeste 0 -- -- 28
2019-08-15 21:00:00 34.4 9 Noroeste 21 Noroeste 0 -- -- 26
2019-08-15 20:00:00 36.2 6 Noroeste 25 Noroeste 0 -- -- 23
2019-08-15 19:00:00 36.4 8 Norte 27 Norte 0 -- -- 22
2019-08-15 18:00:00 36.5 15 Nordeste 27 Norte 0 -- -- 21
2019-08-15 17:00:00 36.8 14 Norte 28 Noroeste 0 -- -- 22
2019-08-15 16:00:00 36.4 7 Norte 26 Norte 0 -- -- 24
2019-08-15 15:00:00 36.3 12 Noroeste 31 Noroeste 0 -- -- 24
2019-08-15 14:00:00 34.1 10 Noroeste 20 Noroeste 0 -- -- 28
2019-08-15 13:00:00 32.5 5 Noroeste 14 Noroeste 0 -- -- 38
2019-08-15 12:00:00 29.8 6 Norte 11 Norte 0 -- -- 44
2019-08-15 11:00:00 27.4 6 Norte 12 Noroeste 0 -- -- 51
2019-08-15 10:00:00 25.3 6 Noroeste 13 Noroeste 0 -- -- 57
2019-08-15 09:00:00 22.8 6 Noroeste 12 Noroeste 0 -- -- 64
2019-08-15 08:00:00 20.8 9 Noroeste 12 Noroeste 0 -- -- 69
2019-08-15 07:00:00 21.1 6 Noroeste 12 Noroeste 0 -- -- 68
2019-08-15 06:00:00 21.2 4 Noroeste 15 Noroeste 0 -- -- 66
2019-08-15 05:00:00 22.1 9 Noroeste 17 Noroeste 0 -- -- 64
2019-08-15 04:00:00 22.9 8 Noroeste 15 Oeste 0 -- -- 62
2019-08-15 03:00:00 23.8 6 Noroeste 18 Noroeste 0 -- -- 56
2019-08-15 02:00:00 24.9 14 Noroeste 23 Noroeste 0 -- -- 53
2019-08-15 01:00:00 26.1 15 Noroeste 23 Noroeste 0 -- -- 46
2019-08-15 00:00:00 27.3 13 Noroeste 26 Noroeste 0 -- -- 38
2019-08-14 23:00:00 28.6 15 Norte 27 Noroeste 0 -- -- 27
2019-08-14 22:00:00 30.2 9 Noroeste 13 Noroeste 0 -- -- 22
2019-08-14 21:00:00 32.6 8 Noroeste 19 Norte 0 -- -- 20
2019-08-14 20:00:00 34.1 8 Norte 26 Noroeste 0 -- -- 19
2019-08-14 19:00:00 35.2 10 Noroeste 27 Noroeste 0 -- -- 18
2019-08-14 18:00:00 35 16 Noroeste 29 Norte 0 -- -- 18
2019-08-14 17:00:00 35.3 11 Noroeste 31 Norte 0 -- -- 17
2019-08-14 16:00:00 34.7 15 Norte 24 Norte 0 -- -- 17
2019-08-14 15:00:00 34 10 Oeste 26 Norte 0 -- -- 18
2019-08-14 14:00:00 32.7 7 Noroeste 19 Norte 0 -- -- 20
2019-08-14 13:00:00 31.1 5 Norte 15 Noroeste 0 -- -- 24
2019-08-14 12:00:00 29.1 4 Noroeste 10 Norte 0 -- -- 26
2019-08-14 11:00:00 26.1 3 Noroeste 11 Norte 0 -- -- 34
2019-08-14 10:00:00 23 5 Noroeste 10 Norte 0 -- -- 41
2019-08-14 09:00:00 18.8 7 Sudoeste 10 Sudoeste 0 -- -- 50
2019-08-14 08:00:00 18.1 6 Noroeste 12 Noroeste 0 -- -- 53
2019-08-14 07:00:00 18.1 7 Noroeste 10 Noroeste 0 -- -- 53
2019-08-14 06:00:00 18.5 4 Noroeste 13 Oeste 0 -- -- 50
2019-08-14 05:00:00 19.4 8 Oeste 13 Noroeste 0 -- -- 50
2019-08-14 04:00:00 20.4 5 Noroeste 11 Noroeste 0 -- -- 48
2019-08-14 03:00:00 21.2 7 Noroeste 14 Noroeste 0 -- -- 46
2019-08-14 02:00:00 21.6 10 Oeste 13 Noroeste 0 -- -- 37
2019-08-14 01:00:00 23.3 8 Noroeste 15 Noroeste 0 -- -- 27
2019-08-14 00:00:00 24.5 10 Nordeste 18 Norte 0 -- -- 23
2019-08-13 23:00:00 26.5 7 Noroeste 9 Norte 0 -- -- 21
2019-08-13 22:00:00 27.9 8 Norte 12 Norte 0 -- -- 20
2019-08-13 21:00:00 30.5 6 Norte 17 Noroeste 0 -- -- 17
2019-08-13 20:00:00 32 7 Nordeste 20 Noroeste 0 -- -- 15
2019-08-13 19:00:00 33 8 Noroeste 22 Nordeste 0 -- -- 15
2019-08-13 18:00:00 33.2 10 Norte 21 Norte 0 -- -- 16
2019-08-13 17:00:00 32.7 9 Este 19 Este 0 -- -- 16
2019-08-13 16:00:00 32.1 9 Nordeste 23 Nordeste 0 -- -- 17
2019-08-13 15:00:00 31.5 7 Este 21 Norte 0 -- -- 18
2019-08-13 14:00:00 30.1 9 Este 17 Este 0 -- -- 19
2019-08-13 13:00:00 28.2 5 Este 12 Nordeste 0 -- -- 23
2019-08-13 12:00:00 26 4 Nordeste 11 Este 0 -- -- 27
2019-08-13 11:00:00 23.9 6 Noroeste 12 Noroeste 0 -- -- 31
2019-08-13 10:00:00 20.9 7 Noroeste 12 Noroeste 0 -- -- 39
2019-08-13 09:00:00 18.1 6 Noroeste 11 Noroeste 0 -- -- 47
2019-08-13 08:00:00 15.3 7 Noroeste 12 Oeste 0 -- -- 51
2019-08-13 07:00:00 16.4 7 Noroeste 16 Noroeste 0 -- -- 49
2019-08-13 06:00:00 16.9 5 Noroeste 11 Oeste 0 -- -- 47
2019-08-13 05:00:00 16.8 9 Noroeste 12 Oeste 0 -- -- 45
2019-08-13 04:00:00 17.4 9 Oeste 15 Noroeste 0 -- -- 36
2019-08-13 03:00:00 19.1 9 Noroeste 13 Noroeste 0 -- -- 30
2019-08-13 02:00:00 20.5 9 Noroeste 12 Noroeste 0 -- -- 25
2019-08-13 01:00:00 21.2 9 Noroeste 14 Noroeste 0 -- -- 23
2019-08-13 00:00:00 22.8 10 Norte 14 Norte 0 -- -- 22
2019-08-12 23:00:00 23.5 9 Norte 14 Norte 0 -- -- 23
2019-08-12 22:00:00 25.2 10 Norte 21 Nordeste 0 -- -- 22
2019-08-12 21:00:00 27.4 16 Norte 29 Norte 0 -- -- 21
2019-08-12 20:00:00 29.1 15 Nordeste 42 Nordeste 0 -- -- 20
2019-08-12 19:00:00 29.4 6 Norte 25 Este 0 -- -- 21
2019-08-12 18:00:00 29.4 10 Norte 23 Nordeste 0 -- -- 21
2019-08-12 17:00:00 29.1 8 Nordeste 22 Este 0 -- -- 24
2019-08-12 16:00:00 28 11 Este 28 Sudeste 0 -- -- 26
2019-08-12 15:00:00 27.1 15 Este 30 Este 0 -- -- 26
2019-08-12 14:00:00 26.8 15 Este 26 Este 0 -- -- 27
2019-08-12 13:00:00 24.9 14 Nordeste 27 Nordeste 0 -- -- 32
2019-08-12 12:00:00 22.9 14 Nordeste 27 Nordeste 0 -- -- 38
2019-08-12 11:00:00 19.7 16 Norte 25 Norte 0 -- -- 48
2019-08-12 10:00:00 17.8 16 Noroeste 23 Noroeste 0 -- -- 56
2019-08-12 09:00:00 15.6 15 Noroeste 24 Noroeste 0 -- -- 64
2019-08-12 08:00:00 13.8 14 Noroeste 20 Norte 0 -- -- 69
2019-08-12 07:00:00 14 12 Noroeste 19 Noroeste 0 -- -- 68
2019-08-12 06:00:00 14.6 13 Noroeste 20 Noroeste 0 -- -- 66
2019-08-12 05:00:00 15.3 15 Noroeste 21 Noroeste 0 -- -- 64
2019-08-12 04:00:00 16 16 Noroeste 23 Noroeste 0 -- -- 60
2019-08-12 03:00:00 17 18 Noroeste 26 Noroeste 0 -- -- 57
2019-08-12 02:00:00 18.1 16 Noroeste 28 Norte 0 -- -- 52
2019-08-12 01:00:00 19.6 20 Norte 32 Norte 0 -- -- 48
2019-08-12 00:00:00 21.1 19 Norte 33 Norte 0 -- -- 40
2019-08-11 23:00:00 22.4 15 Norte 29 Norte 0 -- -- 34
2019-08-11 22:00:00 23.6 14 Norte 25 Norte 0 -- -- 31
2019-08-11 21:00:00 25.1 17 Norte 34 Norte 0 -- -- 27
2019-08-11 20:00:00 26.6 19 Norte 35 Norte 0 -- -- 24
2019-08-11 19:00:00 26.6 20 Norte 33 Norte 0 -- -- 25
2019-08-11 18:00:00 26.9 18 Noroeste 36 Norte 0 -- -- 27
2019-08-11 17:00:00 26.4 19 Norte 46 Noroeste 0 -- -- 28
2019-08-11 16:00:00 27.1 17 Norte 39 Norte 0 -- -- 28
2019-08-11 15:00:00 26.4 15 Noroeste 33 Noroeste 0 -- -- 29
2019-08-11 14:00:00 25.4 16 Noroeste 35 Norte 0 -- -- 32
2019-08-11 13:00:00 23 21 Noroeste 33 Noroeste 0 -- -- 43
2019-08-11 12:00:00 22.2 15 Noroeste 29 Noroeste 0 -- -- 49
2019-08-11 11:00:00 20.1 16 Noroeste 28 Noroeste 0 -- -- 56
2019-08-11 10:00:00 18 16 Noroeste 31 Noroeste 0 -- -- 64
2019-08-11 09:00:00 16.2 19 Noroeste 33 Noroeste 0 -- -- 73
2019-08-11 08:00:00 15.1 13 Noroeste 25 Noroeste 0 -- -- 78
2019-08-11 07:00:00 15.5 13 Noroeste 33 Noroeste 0 -- -- 73
2019-08-11 06:00:00 17 16 Noroeste 32 Noroeste 0 -- -- 63
2019-08-11 05:00:00 17.8 15 Noroeste 27 Noroeste 0 -- -- 60
2019-08-11 04:00:00 18.5 11 Noroeste 24 Noroeste 0 -- -- 55
2019-08-11 03:00:00 18.5 12 Noroeste 31 Noroeste 0 -- -- 56
2019-08-11 02:00:00 19.4 18 Noroeste 33 Noroeste 0 -- -- 55
2019-08-11 01:00:00 20.7 24 Noroeste 35 Noroeste 0 -- -- 55
2019-08-11 00:00:00 22.4 24 Noroeste 37 Noroeste 0 -- -- 51
2019-08-10 23:00:00 24 17 Noroeste 30 Norte 0 -- -- 41
2019-08-10 22:00:00 25.2 16 Norte 32 Noroeste 0 -- -- 38
2019-08-10 21:00:00 27.1 20 Norte 31 Norte 0 -- -- 31
2019-08-10 20:00:00 28.9 16 Norte 30 Norte 0 -- -- 23
2019-08-10 19:00:00 30.5 19 Noroeste 31 Noroeste 0 -- -- 22
2019-08-10 18:00:00 31 14 Norte 30 Noroeste 0 -- -- 22
2019-08-10 17:00:00 31 13 Noroeste 26 Noroeste 0 -- -- 22
2019-08-10 16:00:00 30.1 7 Norte 22 Noroeste 0 -- -- 21
2019-08-10 15:00:00 28.9 10 Noroeste 21 Noroeste 0 -- -- 27
2019-08-10 14:00:00 27.9 8 Oeste 27 Noroeste 0 -- -- 31
2019-08-10 13:00:00 25.9 6 Oeste 22 Norte 0 -- -- 40
2019-08-10 12:00:00 24.2 7 Oeste 16 Oeste 0 -- -- 46
2019-08-10 11:00:00 22.8 8 Noroeste 17 Noroeste 0 -- -- 55
2019-08-10 10:00:00 21 9 Noroeste 13 Noroeste 0 -- -- 63
2019-08-10 09:00:00 18.5 5 Noroeste 9 Noroeste 0 -- -- 74
2019-08-10 08:00:00 16.6 5 Noroeste 11 Noroeste 0 -- -- 79
2019-08-10 07:00:00 16.8 6 Noroeste 12 Noroeste 0 -- -- 78
2019-08-10 06:00:00 17.6 7 Noroeste 15 Noroeste 0 -- -- 76
2019-08-10 05:00:00 18.5 8 Noroeste 17 Noroeste 0 -- -- 72
2019-08-10 04:00:00 19.3 11 Noroeste 18 Noroeste 0 -- -- 68
2019-08-10 03:00:00 20.3 11 Noroeste 18 Noroeste 0 -- -- 63
2019-08-10 02:00:00 20.9 9 Noroeste 16 Noroeste 0 -- -- 60
2019-08-10 01:00:00 21.8 10 Noroeste 21 Noroeste 0 -- -- 56
2019-08-10 00:00:00 22.6 14 Noroeste 20 Noroeste 0 -- -- 53
2019-08-09 23:00:00 23.3 12 Noroeste 24 Norte 0 -- -- 55
2019-08-09 22:00:00 24.1 13 Norte 27 Norte 0 -- -- 61
2019-08-09 21:00:00 25 19 Norte 28 Noroeste 0 -- -- 58
2019-08-09 20:00:00 27 19 Norte 32 Noroeste 0 -- -- 55
2019-08-09 19:00:00 27.5 20 Norte 37 Norte 0 -- -- 54
2019-08-09 18:00:00 28.9 19 Noroeste 39 Noroeste 0 -- -- 52
2019-08-09 17:00:00 28.8 23 Noroeste 45 Norte 0 -- -- 56
2019-08-09 16:00:00 29.3 27 Noroeste 42 Noroeste 0 -- -- 57
2019-08-09 15:00:00 30.8 19 Noroeste 36 Noroeste 0 -- -- 50
2019-08-09 14:00:00 29.1 11 Noroeste 24 Noroeste 0 -- -- 55
2019-08-09 13:00:00 28 10 Noroeste 22 Noroeste 0 -- -- 58
2019-08-09 12:00:00 26.7 15 Oeste 25 Oeste 0 -- -- 64
2019-08-09 11:00:00 23.4 12 Sudoeste 20 Oeste 0 -- -- 75
2019-08-09 10:00:00 22.1 10 Oeste 15 Oeste 0 -- -- 79
2019-08-09 09:00:00 21.5 8 Sudoeste 18 Noroeste 0 -- -- 79
2019-08-09 08:00:00 21.1 14 Oeste 23 Oeste 0 -- -- 82
2019-08-09 07:00:00 21.1 11 Oeste 24 Oeste 0 -- -- 81
2019-08-09 06:00:00 20.8 10 Oeste 28 Noroeste 0 -- -- 82
2019-08-09 05:00:00 20.9 14 Noroeste 27 Noroeste 0 -- -- 83
2019-08-09 04:00:00 21.6 14 Noroeste 25 Noroeste 0 -- -- 77
2019-08-09 03:00:00 22.5 9 Noroeste 22 Noroeste 0 -- -- 70
2019-08-09 02:00:00 23.3 10 Noroeste 30 Noroeste 0 -- -- 65
2019-08-09 01:00:00 24.6 19 Noroeste 32 Noroeste 0 -- -- 59
2019-08-09 00:00:00 26.1 20 Noroeste 40 Noroeste 0 -- -- 58
2019-08-08 23:00:00 27.9 27 Noroeste 40 Noroeste 0 -- -- 50
2019-08-08 22:00:00 29.1 18 Noroeste 33 Noroeste 0 -- -- 45
2019-08-08 21:00:00 31.1 18 Noroeste 35 Noroeste 0 -- -- 36
2019-08-08 20:00:00 33.2 20 Noroeste 39 Oeste 0 -- -- 29
2019-08-08 19:00:00 34.3 25 Noroeste 37 Noroeste 0 -- -- 30
2019-08-08 18:00:00 35.4 16 Oeste 37 Noroeste 0 -- -- 28
2019-08-08 17:00:00 35.1 14 Oeste 28 Oeste 0 -- -- 27
2019-08-08 16:00:00 34.5 11 Noroeste 32 Oeste 0 -- -- 28
2019-08-08 15:00:00 33.8 11 Noroeste 24 Oeste 0 -- -- 26
2019-08-08 14:00:00 31.6 8 Sudoeste 20 Sudoeste 0 -- -- 35
2019-08-08 13:00:00 29.4 8 Sudoeste 20 Sudoeste 0 -- -- 41
2019-08-08 12:00:00 27.2 5 Sur 14 Oeste 0 -- -- 48
2019-08-08 11:00:00 25.2 4 Este 9 Este 0 -- -- 56
2019-08-08 10:00:00 23.2 4 Sudoeste 8 Sudoeste 0 -- -- 62
2019-08-08 09:00:00 20.5 4 Sur 9 Sur 0 -- -- 69
2019-08-08 08:00:00 18.5 0 Calma 12 Sudoeste 0 -- -- 75
2019-08-08 07:00:00 18.9 3 Sudoeste 8 Norte 0 -- -- 72
2019-08-08 06:00:00 19.8 4 Noroeste 10 Noroeste 0 -- -- 65
2019-08-08 05:00:00 20.5 4 Noroeste 13 Noroeste 0 -- -- 63
2019-08-08 04:00:00 21.2 9 Noroeste 14 Noroeste 0 -- -- 61
2019-08-08 03:00:00 21.8 8 Noroeste 15 Noroeste 0 -- -- 57
2019-08-08 02:00:00 20.4 9 Sudoeste 12 Sur 0 -- -- 60
2019-08-08 01:00:00 20.8 5 Sudoeste 9 Oeste 0 -- -- 56
2019-08-08 00:00:00 22.6 5 Oeste 10 Noroeste 0 -- -- 52
2019-08-07 23:00:00 23.7 6 Norte 9 Norte 0 -- -- 51
2019-08-07 22:00:00 24.8 4 Norte 9 Noroeste 0 -- -- 49
2019-08-07 21:00:00 26.2 4 Noroeste 12 Oeste 0 -- -- 46
2019-08-07 20:00:00 27 7 Noroeste 15 Norte 0 -- -- 44
2019-08-07 19:00:00 26.1 7 Norte 14 Noroeste 0 -- -- 49
2019-08-07 18:00:00 25.3 5 Norte 12 Norte 0 -- -- 52
2019-08-07 17:00:00 25.9 7 Noroeste 17 Norte 0 -- -- 50
2019-08-07 16:00:00 26.2 7 Norte 19 Noroeste 0 -- -- 49
2019-08-07 15:00:00 26.5 11 Nordeste 24 Norte 0 -- -- 48
2019-08-07 14:00:00 26.3 10 Noroeste 24 Noroeste 0 -- -- 51
2019-08-07 13:00:00 24.9 11 Norte 26 Noroeste 0 -- -- 55
2019-08-07 12:00:00 25.8 15 Noroeste 26 Noroeste 0 -- -- 54
2019-08-07 11:00:00 22.6 10 Noroeste 22 Noroeste 0 -- -- 68
2019-08-07 10:00:00 20.7 9 Noroeste 20 Noroeste 0 -- -- 74
2019-08-07 09:00:00 20 11 Noroeste 23 Noroeste 0 -- -- 77
2019-08-07 08:00:00 19.6 10 Noroeste 22 Noroeste 0 -- -- 77
2019-08-07 07:00:00 19.8 11 Noroeste 25 Oeste 0 -- -- 76
2019-08-07 06:00:00 19.7 9 Noroeste 24 Noroeste 0 -- -- 77
2019-08-07 05:00:00 20.4 12 Noroeste 28 Noroeste 0 -- -- 73
2019-08-07 04:00:00 21.1 15 Noroeste 28 Noroeste 0 -- -- 70
2019-08-07 03:00:00 21.8 16 Noroeste 26 Noroeste 0 -- -- 67
2019-08-07 02:00:00 23 11 Noroeste 24 Noroeste 0 -- -- 61
2019-08-07 01:00:00 24.1 16 Noroeste 31 Noroeste 0 -- -- 57
2019-08-07 00:00:00 25 13 Norte 33 Noroeste 0 -- -- 54
2019-08-06 23:00:00 26.6 18 Noroeste 33 Noroeste 0 -- -- 50
2019-08-06 22:00:00 28.2 17 Norte 35 Norte 0 -- -- 42
2019-08-06 21:00:00 30.2 24 Norte 35 Norte 0 -- -- 37
2019-08-06 20:00:00 32.7 21 Noroeste 37 Noroeste 0 -- -- 29
2019-08-06 19:00:00 34.4 18 Noroeste 35 Noroeste 0 -- -- 26
2019-08-06 18:00:00 35 21 Noroeste 38 Noroeste 0 -- -- 24
2019-08-06 17:00:00 35.1 12 Noroeste 28 Oeste 0 -- -- 25
2019-08-06 16:00:00 34.4 14 Noroeste 30 Noroeste 0 -- -- 28
2019-08-06 15:00:00 32.6 10 Oeste 23 Noroeste 0 -- -- 34
2019-08-06 14:00:00 31.2 10 Noroeste 32 Norte 0 -- -- 37
2019-08-06 13:00:00 29.8 11 Noroeste 23 Noroeste 0 -- -- 41
2019-08-06 12:00:00 27.9 8 Noroeste 16 Noroeste 0 -- -- 44
2019-08-06 11:00:00 25.1 7 Sur 15 Sur 0 -- -- 50
2019-08-06 10:00:00 21.8 4 Sur 11 Sudoeste 0 -- -- 64
2019-08-06 09:00:00 19.1 3 Oeste 13 Noroeste 0 -- -- 77
2019-08-06 08:00:00 17.7 7 Noroeste 22 Noroeste 0 -- -- 82
2019-08-06 07:00:00 18 11 Noroeste 15 Noroeste 0 -- -- 78
2019-08-06 06:00:00 18.4 9 Noroeste 15 Noroeste 0 -- -- 67
2019-08-06 05:00:00 19 7 Oeste 11 Noroeste 0 -- -- 60
2019-08-06 04:00:00 20.5 8 Noroeste 18 Noroeste 0 -- -- 58
2019-08-06 03:00:00 21.8 9 Noroeste 21 Noroeste 0 -- -- 52
2019-08-06 02:00:00 23.3 10 Noroeste 23 Noroeste 0 -- -- 47
2019-08-06 01:00:00 24.7 10 Noroeste 25 Noroeste 0 -- -- 42
2019-08-06 00:00:00 26.3 15 Noroeste 24 Noroeste 0 -- -- 36
2019-08-05 23:00:00 27.6 10 Noroeste 18 Norte 0 -- -- 30
2019-08-05 22:00:00 29.7 15 Norte 25 Norte 0 -- -- 28
2019-08-05 21:00:00 31.6 18 Norte 32 Norte 0 -- -- 25
2019-08-05 20:00:00 33.9 17 Noroeste 35 Norte 0 -- -- 22
2019-08-05 19:00:00 34.4 19 Noroeste 39 Norte 0 -- -- 16
2019-08-05 18:00:00 34.9 15 Noroeste 34 Noroeste 0 -- -- 18
2019-08-05 17:00:00 34.4 17 Norte 31 Norte 0 -- -- 22
2019-08-05 16:00:00 33.9 14 Norte 27 Noroeste 0 -- -- 25
2019-08-05 15:00:00 33.7 10 Noroeste 22 Noroeste 0 -- -- 25
2019-08-05 14:00:00 31.3 8 Norte 16 Noroeste 0 -- -- 29
2019-08-05 13:00:00 28.8 6 Noroeste 13 Noroeste 0 -- -- 36
2019-08-05 12:00:00 25.4 3 Norte 9 Norte 0 -- -- 43
2019-08-05 11:00:00 22.7 5 Noroeste 9 Noroeste 0 -- -- 54
2019-08-05 10:00:00 19.6 3 Noroeste 8 Noroeste 0 -- -- 64
2019-08-05 09:00:00 17.5 6 Noroeste 8 Norte 0 -- -- 72
2019-08-05 08:00:00 15.7 4 Noroeste 13 Noroeste 0 -- -- 76
2019-08-05 07:00:00 16.1 9 Noroeste 14 Norte 0 -- -- 74
2019-08-05 06:00:00 17.3 5 Noroeste 12 Noroeste 0 -- -- 68
2019-08-05 05:00:00 19 7 Noroeste 15 Oeste 0 -- -- 61
2019-08-05 04:00:00 20.1 10 Oeste 16 Oeste 0 -- -- 61
2019-08-05 03:00:00 21.1 11 Noroeste 22 Noroeste 0 -- -- 56
2019-08-05 02:00:00 22.3 15 Noroeste 26 Noroeste 0 -- -- 54
2019-08-05 01:00:00 23.7 19 Noroeste 33 Noroeste 0 -- -- 49
2019-08-05 00:00:00 25.1 21 Noroeste 29 Noroeste 0 -- -- 47
2019-08-04 23:00:00 26.8 18 Norte 34 Norte 0 -- -- 45
2019-08-04 22:00:00 29.1 20 Norte 36 Norte 0 -- -- 36
2019-08-04 21:00:00 31.3 22 Norte 33 Norte 0 -- -- 30
2019-08-04 20:00:00 33.6 17 Noroeste 31 Norte 0 -- -- 26
2019-08-04 19:00:00 34.4 17 Norte 31 Norte 0 -- -- 23
2019-08-04 18:00:00 34.7 13 Noroeste 28 Noroeste 0 -- -- 24
2019-08-04 17:00:00 34.4 15 Noroeste 29 Norte 0 -- -- 26
2019-08-04 16:00:00 33.5 15 Noroeste 30 Norte 0 -- -- 31
2019-08-04 15:00:00 32.2 14 Noroeste 29 Noroeste 0 -- -- 34
2019-08-04 14:00:00 30.8 10 Noroeste 23 Norte 0 -- -- 38
2019-08-04 13:00:00 28.7 10 Noroeste 21 Noroeste 0 -- -- 46
2019-08-04 12:00:00 25.9 9 Oeste 15 Oeste 0 -- -- 53
2019-08-04 11:00:00 23.7 6 Noroeste 19 Noroeste 0 -- -- 61
2019-08-04 10:00:00 21.4 9 Noroeste 20 Noroeste 0 -- -- 71
2019-08-04 09:00:00 19.2 13 Noroeste 18 Noroeste 0 -- -- 79
2019-08-04 08:00:00 17.8 7 Noroeste 17 Noroeste 0 -- -- 84
2019-08-04 07:00:00 17.9 10 Noroeste 22 Noroeste 0 -- -- 82
2019-08-04 06:00:00 18.8 13 Noroeste 21 Noroeste 0 -- -- 76
2019-08-04 05:00:00 19.9 10 Noroeste 21 Noroeste 0 -- -- 71
2019-08-04 04:00:00 20.9 12 Noroeste 21 Noroeste 0 -- -- 66
2019-08-04 03:00:00 22.2 7 Noroeste 20 Noroeste 0 -- -- 59
2019-08-04 02:00:00 23.3 14 Noroeste 24 Noroeste 0 -- -- 58
2019-08-04 01:00:00 24.5 15 Noroeste 29 Noroeste 0 -- -- 55
2019-08-04 00:00:00 26.4 17 Noroeste 33 Norte 0 -- -- 47
2019-08-03 23:00:00 28.2 17 Noroeste 26 Norte 0 -- -- 37
2019-08-03 22:00:00 30.2 8 Noroeste 28 Noroeste 0 -- -- 25
2019-08-03 21:00:00 31.9 17 Noroeste 28 Noroeste 0 -- -- 21
2019-08-03 20:00:00 33.8 18 Noroeste 33 Noroeste 0 -- -- 20
2019-08-03 19:00:00 34.9 17 Noroeste 33 Noroeste 0 -- -- 18
2019-08-03 18:00:00 35.4 17 Noroeste 33 Norte 0 -- -- 19
2019-08-03 17:00:00 35.4 13 Noroeste 33 Noroeste 0 -- -- 24
2019-08-03 16:00:00 34.8 21 Oeste 44 Oeste 0 -- -- 25
2019-08-03 15:00:00 33.8 14 Noroeste 31 Nordeste 0 -- -- 28
2019-08-03 14:00:00 32.6 11 Norte 21 Oeste 0 -- -- 30
2019-08-03 13:00:00 30.6 6 Norte 17 Noroeste 0 -- -- 34
2019-08-03 12:00:00 27.7 4 Noroeste 11 Noroeste 0 -- -- 42
2019-08-03 11:00:00 24.6 4 Oeste 10 Noroeste 0 -- -- 51
2019-08-03 10:00:00 21.9 5 Noroeste 10 Noroeste 0 -- -- 59
2019-08-03 09:00:00 19.3 5 Noroeste 9 Norte 0 -- -- 67
2019-08-03 08:00:00 17 6 Nordeste 9 Nordeste 0 -- -- 72
2019-08-03 07:00:00 17.5 5 Este 6 Sudeste 0 -- -- 70
2019-08-03 06:00:00 18.3 2 Este 8 Oeste 0 -- -- 62
2019-08-03 05:00:00 19.7 5 Oeste 8 Oeste 0 -- -- 63
2019-08-03 04:00:00 21.2 3 Noroeste 16 Noroeste 0 -- -- 60
2019-08-03 03:00:00 22.4 14 Noroeste 20 Noroeste 0 -- -- 58
2019-08-03 02:00:00 23.7 15 Noroeste 23 Noroeste 0 -- -- 54
2019-08-03 01:00:00 25 11 Noroeste 21 Noroeste 0 -- -- 47
2019-08-03 00:00:00 26.2 11 Noroeste 24 Noroeste 0 -- -- 35
2019-08-02 23:00:00 27.6 3 Noroeste 7 Norte 0 -- -- 24
2019-08-02 22:00:00 28.9 7 Norte 21 Norte 0 -- -- 23
2019-08-02 21:00:00 31.3 15 Norte 24 Norte 0 -- -- 21
2019-08-02 20:00:00 32.7 14 Norte 28 Norte 0 -- -- 21
2019-08-02 19:00:00 33.7 13 Norte 24 Norte 0 -- -- 21
2019-08-02 18:00:00 33.9 15 Noroeste 26 Norte 0 -- -- 23
2019-08-02 17:00:00 33.7 10 Noroeste 24 Noroeste 0 -- -- 24
2019-08-02 16:00:00 33 9 Noroeste 23 Noroeste 0 -- -- 26
2019-08-02 15:00:00 31.4 8 Norte 22 Noroeste 0 -- -- 29
2019-08-02 14:00:00 29.4 9 Norte 20 Norte 0 -- -- 32
2019-08-02 13:00:00 26.9 8 Norte 18 Noroeste 0 -- -- 40
2019-08-02 12:00:00 23.9 6 Norte 12 Norte 0 -- -- 48
2019-08-02 11:00:00 21.8 4 Norte 11 Noroeste 0 -- -- 56
2019-08-02 10:00:00 19.2 6 Noroeste 14 Noroeste 0 -- -- 66
2019-08-02 09:00:00 17 7 Noroeste 14 Noroeste 0 -- -- 76
2019-08-02 08:00:00 15.2 6 Oeste 15 Oeste 0 -- -- 80
2019-08-02 07:00:00 15.3 9 Noroeste 14 Noroeste 0 -- -- 76
2019-08-02 06:00:00 16.1 4 Noroeste 21 Noroeste 0 -- -- 69
2019-08-02 05:00:00 17.3 15 Noroeste 22 Noroeste 0 -- -- 62
2019-08-02 04:00:00 18.8 14 Noroeste 21 Noroeste 0 -- -- 55
2019-08-02 03:00:00 20.4 9 Noroeste 18 Noroeste 0 -- -- 51
2019-08-02 02:00:00 21.7 9 Noroeste 22 Noroeste 0 -- -- 46
2019-08-02 01:00:00 23.3 12 Noroeste 33 Noroeste 0 -- -- 40
2019-08-02 00:00:00 25.1 18 Noroeste 30 Noroeste 0 -- -- 35
2019-08-01 23:00:00 27 20 Noroeste 32 Norte 0 -- -- 31
2019-08-01 22:00:00 28.8 18 Norte 28 Norte 0 -- -- 27
2019-08-01 21:00:00 31.1 19 Norte 30 Norte 0 -- -- 23
2019-08-01 20:00:00 33 16 Noroeste 31 Noroeste 0 -- -- 21
2019-08-01 19:00:00 34 14 Noroeste 26 Noroeste 0 -- -- 24
2019-08-01 18:00:00 34.3 10 Noroeste 30 Noroeste 0 -- -- 21
2019-08-01 17:00:00 34.1 14 Noroeste 41 Oeste 0 -- -- 22
2019-08-01 16:00:00 33.6 13 Noroeste 28 Noroeste 0 -- -- 22
2019-08-01 15:00:00 32.8 18 Noroeste 35 Noroeste 0 -- -- 24
2019-08-01 14:00:00 31.8 12 Noroeste 28 Noroeste 0 -- -- 26
2019-08-01 13:00:00 30 11 Noroeste 24 Noroeste 0 -- -- 31
2019-08-01 12:00:00 28.4 9 Noroeste 17 Noroeste 0 -- -- 34
2019-08-01 11:00:00 25.4 3 Noroeste 6 Noroeste 0 -- -- 43
2019-08-01 10:00:00 22.1 3 Noroeste 6 Norte 0 -- -- 50
2019-08-01 09:00:00 19.7 2 Norte 5 Nordeste 0 -- -- 56
2019-08-01 08:00:00 18.2 3 Norte 6 Noroeste 0 -- -- 55
2019-08-01 07:00:00 19.1 4 Noroeste 7 Noroeste 0 -- -- 55
2019-08-01 06:00:00 20.2 6 Noroeste 12 Noroeste 0 -- -- 51
2019-08-01 05:00:00 20.6 5 Noroeste 10 Noroeste 0 -- -- 49
2019-08-01 04:00:00 21.6 6 Noroeste 15 Oeste 0 -- -- 47
2019-08-01 03:00:00 22.5 10 Noroeste 15 Noroeste 0 -- -- 44
2019-08-01 02:00:00 23.6 9 Noroeste 17 Oeste 0 -- -- 42
2019-08-01 01:00:00 24.6 10 Noroeste 19 Noroeste 0 -- -- 38
2019-08-01 00:00:00 25.2 9 Noroeste 22 Noroeste 0 -- -- 37
2019-07-31 23:00:00 26.1 12 Noroeste 29 Noroeste 0 -- -- 36
2019-07-31 22:00:00 27.7 22 Noroeste 40 Norte 0 -- -- 34
2019-07-31 21:00:00 31.7 13 Noroeste 25 Nordeste 0 -- -- 18
2019-07-31 20:00:00 33.3 18 Norte 31 Nordeste 0 -- -- 18
2019-07-31 19:00:00 34.3 15 Norte 29 Norte 0 -- -- 18
2019-07-31 18:00:00 34.2 17 Norte 31 Norte 0 -- -- 20
2019-07-31 17:00:00 34.6 12 Norte 32 Norte 0 -- -- 20
2019-07-31 16:00:00 34.3 12 Norte 27 Norte 0 -- -- 19
2019-07-31 15:00:00 33.7 12 Noroeste 24 Norte 0 -- -- 19
2019-07-31 14:00:00 31.9 8 Noroeste 15 Norte 0 -- -- 23
2019-07-31 13:00:00 29.5 6 Este 13 Nordeste 0 -- -- 26
2019-07-31 12:00:00 27.4 5 Noroeste 10 Noroeste 0 -- -- 28
2019-07-31 11:00:00 24.8 4 Norte 10 Noroeste 0 -- -- 33
2019-07-31 10:00:00 22.2 4 Noroeste 10 Noroeste 0 -- -- 39
2019-07-31 09:00:00 18.9 3 Noroeste 10 Oeste 0 -- -- 46
2019-07-31 08:00:00 15.4 9 Oeste 10 Oeste 0 -- -- 52
2019-07-31 07:00:00 15.3 8 Oeste 12 Oeste 0 -- -- 54
2019-07-31 06:00:00 16.1 9 Oeste 14 Noroeste 0 -- -- 53
2019-07-31 05:00:00 17.5 9 Noroeste 13 Noroeste 0 -- -- 51
2019-07-31 04:00:00 18.4 7 Noroeste 17 Noroeste 0 -- -- 50
2019-07-31 03:00:00 19.6 10 Noroeste 20 Noroeste 0 -- -- 49
2019-07-31 02:00:00 20.6 11 Noroeste 19 Noroeste 0 -- -- 47
2019-07-31 01:00:00 21.8 8 Noroeste 19 Noroeste 0 -- -- 40
2019-07-31 00:00:00 24.7 8 Noroeste 12 Noroeste 0 -- -- 25
2019-07-30 23:00:00 25.2 9 Noroeste 13 Noroeste 0 -- -- 24
2019-07-30 22:00:00 26.9 10 Noroeste 21 Noroeste 0 -- -- 22
2019-07-30 21:00:00 29.4 13 Norte 26 Noroeste 0 -- -- 19
2019-07-30 20:00:00 30.9 15 Noroeste 25 Norte 0 -- -- 18
2019-07-30 19:00:00 31.5 6 Norte 28 Norte 0 -- -- 18
2019-07-30 18:00:00 31.3 11 Norte 28 Norte 0 -- -- 19
2019-07-30 17:00:00 30.8 16 Norte 28 Norte 0 -- -- 20
2019-07-30 16:00:00 29.9 7 Norte 25 Norte 0 -- -- 22
2019-07-30 15:00:00 28.8 14 Norte 35 Nordeste 0 -- -- 25
2019-07-30 14:00:00 26.9 12 Norte 28 Norte 0 -- -- 30
2019-07-30 13:00:00 24.5 10 Norte 26 Norte 0 -- -- 35
2019-07-30 12:00:00 22.7 12 Norte 22 Norte 0 -- -- 40
2019-07-30 11:00:00 20.6 11 Norte 20 Norte 0 -- -- 44
2019-07-30 10:00:00 18.5 11 Norte 19 Norte 0 -- -- 53
2019-07-30 09:00:00 16.3 9 Noroeste 18 Noroeste 0 -- -- 62
2019-07-30 08:00:00 14.1 8 Noroeste 17 Noroeste 0 -- -- 69
2019-07-30 07:00:00 14 7 Noroeste 19 Noroeste 0 -- -- 69
2019-07-30 06:00:00 14.9 12 Noroeste 19 Norte 0 -- -- 67
2019-07-30 05:00:00 15.6 10 Noroeste 24 Noroeste 0 -- -- 63
2019-07-30 04:00:00 16.4 19 Noroeste 26 Noroeste 0 -- -- 61
2019-07-30 03:00:00 17.3 15 Noroeste 28 Noroeste 0 -- -- 55
2019-07-30 02:00:00 18.8 18 Noroeste 29 Noroeste 0 -- -- 49
2019-07-30 01:00:00 20.2 19 Noroeste 28 Noroeste 0 -- -- 46
2019-07-30 00:00:00 21.7 18 Noroeste 30 Noroeste 0 -- -- 42
2019-07-29 23:00:00 23.5 21 Noroeste 36 Noroeste 0 -- -- 38
2019-07-29 22:00:00 25.4 23 Noroeste 39 Noroeste 0 -- -- 33
2019-07-29 21:00:00 27.6 26 Noroeste 37 Noroeste 0 -- -- 30
2019-07-29 20:00:00 29.7 19 Noroeste 33 Noroeste 0 -- -- 27
2019-07-29 19:00:00 30.2 21 Noroeste 39 Noroeste 0 -- -- 25
2019-07-29 18:00:00 30.4 18 Noroeste 37 Noroeste 0 -- -- 27
2019-07-29 17:00:00 30.3 19 Noroeste 36 Noroeste 0 -- -- 31
2019-07-29 16:00:00 29.6 20 Norte 38 Noroeste 0 -- -- 37
2019-07-29 15:00:00 29.3 18 Noroeste 37 Noroeste 0 -- -- 42
2019-07-29 14:00:00 28.1 13 Noroeste 27 Norte 0 -- -- 45
2019-07-29 13:00:00 26.6 14 Noroeste 27 Noroeste 0 -- -- 47
2019-07-29 12:00:00 24.5 13 Noroeste 27 Noroeste 0 -- -- 48
2019-07-29 11:00:00 22.4 13 Noroeste 23 Noroeste 0 -- -- 52
2019-07-29 10:00:00 20 14 Noroeste 24 Noroeste 0 -- -- 53
2019-07-29 09:00:00 17.6 12 Noroeste 24 Noroeste 0 -- -- 57
2019-07-29 08:00:00 15.9 11 Noroeste 23 Noroeste 0 -- -- 56
2019-07-29 07:00:00 16.1 14 Noroeste 22 Noroeste 0 -- -- 51
2019-07-29 06:00:00 17.6 12 Noroeste 22 Noroeste 0 -- -- 45
2019-07-29 05:00:00 18.5 13 Oeste 21 Oeste 0 -- -- 50
2019-07-29 04:00:00 19.8 10 Noroeste 20 Noroeste 0 -- -- 53
2019-07-29 03:00:00 20.7 15 Noroeste 30 Noroeste 0 -- -- 48
2019-07-29 02:00:00 22 18 Noroeste 31 Noroeste 0 -- -- 46
2019-07-29 01:00:00 23.4 19 Noroeste 33 Norte 0 -- -- 48
2019-07-29 00:00:00 25.1 19 Noroeste 30 Noroeste 0 -- -- 42
2019-07-28 23:00:00 26.6 5 Noroeste 9 Norte 0 -- -- 33
2019-07-28 22:00:00 27.4 6 Noroeste 13 Noroeste 0 -- -- 34
2019-07-28 21:00:00 29.1 10 Noroeste 23 Noroeste 0 -- -- 32
2019-07-28 20:00:00 30.3 12 Norte 27 Norte 0 -- -- 34
2019-07-28 19:00:00 31.1 6 Noroeste 23 Norte 0 -- -- 34
2019-07-28 18:00:00 29.5 11 Nordeste 23 Norte 0 -- -- 37
2019-07-28 17:00:00 31.1 9 Este 24 Norte 0 -- -- 35
2019-07-28 16:00:00 29.6 9 Nordeste 21 Nordeste 0 -- -- 37
2019-07-28 15:00:00 29 12 Nordeste 18 Sur 0 -- -- 40
2019-07-28 14:00:00 28.4 10 Sudeste 17 Sudeste 0 -- -- 42
2019-07-28 13:00:00 26.6 7 Nordeste 13 Norte 0 -- -- 47
2019-07-28 12:00:00 24.9 7 Noroeste 14 Noroeste 0 -- -- 53
2019-07-28 11:00:00 22.6 7 Noroeste 12 Oeste 0 -- -- 62
2019-07-28 10:00:00 20.1 5 Oeste 9 Oeste 0 -- -- 72
2019-07-28 09:00:00 17.7 4 Oeste 7 Oeste 0 -- -- 79
2019-07-28 08:00:00 15.8 3 Oeste 10 Oeste 0 -- -- 85
2019-07-28 07:00:00 16.1 3 Noroeste 17 Noroeste 0 -- -- 83
2019-07-28 06:00:00 16.7 5 Noroeste 15 Noroeste 0 -- -- 81
2019-07-28 05:00:00 17.2 10 Noroeste 16 Noroeste 0 -- -- 78
2019-07-28 04:00:00 17.9 9 Noroeste 16 Oeste 0 -- -- 74
2019-07-28 03:00:00 18.6 8 Noroeste 15 Noroeste 0 -- -- 69
2019-07-28 02:00:00 19.3 8 Noroeste 20 Noroeste 0 -- -- 63
2019-07-28 01:00:00 20.5 9 Noroeste 16 Noroeste 0 -- -- 58
2019-07-28 00:00:00 21.9 9 Noroeste 19 Noroeste 0 -- -- 54
2019-07-27 23:00:00 22.8 12 Noroeste 26 Norte 0 -- -- 53
2019-07-26 12:00:00 -- -- -- -- -- -- -- -- --
2019-07-26 11:00:00 -- -- -- -- -- -- -- -- --
2019-07-26 10:00:00 -- -- -- -- -- -- -- -- --
2019-07-26 09:00:00 -- -- -- -- -- -- -- -- --
2019-07-26 08:00:00 15.8 14 Noroeste 28 Noroeste 0 -- -- 82
2019-07-26 07:00:00 16.4 14 Noroeste 31 Noroeste 0 -- -- 79
2019-07-26 06:00:00 17.9 12 Noroeste 28 Noroeste 0 -- -- 71
2019-07-26 05:00:00 18.7 13 Noroeste 24 Noroeste 0 -- -- 69
2019-07-26 04:00:00 19.8 13 Noroeste 23 Noroeste 0 -- -- 69
2019-07-26 03:00:00 20.6 14 Noroeste 24 Oeste 0 -- -- 71
2019-07-26 02:00:00 21.5 13 Noroeste 36 Noroeste 0 -- -- 70
2019-07-26 01:00:00 22.4 22 Noroeste 37 Noroeste 0 -- -- 68
2019-07-26 00:00:00 23.4 24 Noroeste 46 Noroeste 0 -- -- 66
2019-07-25 23:00:00 26 30 Noroeste 46 Noroeste 0 -- -- 59
2019-07-25 22:00:00 29.1 14 Noroeste 31 Noroeste 0 -- -- 40
2019-07-25 21:00:00 30.8 22 Noroeste 38 Noroeste 0 -- -- 33
2019-07-25 20:00:00 32.8 23 Noroeste 38 Noroeste 0 -- -- 27
2019-07-25 19:00:00 33.8 23 Noroeste 40 Noroeste 0 -- -- 28
2019-07-25 18:00:00 34.1 21 Noroeste 40 Noroeste 0 -- -- 30
2019-07-25 17:00:00 34 21 Noroeste 36 Noroeste 0 -- -- 33
2019-07-25 16:00:00 34.4 15 Noroeste 33 Noroeste 0 -- -- 32
2019-07-25 15:00:00 32.9 12 Noroeste 24 Noroeste 0 -- -- 35
2019-07-25 14:00:00 32 13 Noroeste 26 Noroeste 0 -- -- 36
2019-07-25 13:00:00 29.8 9 Noroeste 18 Noroeste 0 -- -- 42
2019-07-25 12:00:00 28.2 12 Noroeste 23 Norte 0 -- -- 48
2019-07-25 11:00:00 26.4 9 Noroeste 18 Norte 0 -- -- 52
2019-07-25 10:00:00 25.1 12 Noroeste 18 Noroeste 0 -- -- 53
2019-07-25 09:00:00 22.8 10 Noroeste 13 Noroeste 0 -- -- 60
2019-07-25 08:00:00 21.1 7 Noroeste 12 Noroeste 0 -- -- 63
2019-07-25 07:00:00 21.2 7 Noroeste 13 Noroeste 0 -- -- 62
2019-07-25 06:00:00 21.3 6 Noroeste 8 Noroeste 0 -- -- 57
2019-07-25 05:00:00 22.7 0 Calma 14 Noroeste 0 -- -- 52
2019-07-25 04:00:00 24.1 9 Noroeste 18 Noroeste 0 -- -- 48
2019-07-25 03:00:00 25.2 14 Noroeste 26 Noroeste 0 -- -- 44
2019-07-25 02:00:00 26.6 12 Noroeste 26 Noroeste 0 -- -- 37
2019-07-25 01:00:00 27.7 10 Noroeste 25 Noroeste 0 -- -- 33
2019-07-25 00:00:00 29.4 19 Noroeste 34 Noroeste 0 -- -- 31
2019-07-24 23:00:00 31.6 20 Noroeste 28 Noroeste 0 -- -- 27
2019-07-24 22:00:00 33 12 Noroeste 27 Noroeste 0 -- -- 27
2019-07-24 21:00:00 34.3 15 Norte 26 Noroeste 0 -- -- 27
2019-07-24 20:00:00 35.8 13 Norte 28 Nordeste 0 -- -- 25
2019-07-24 19:00:00 36.3 14 Norte 31 Norte 0 -- -- 25
2019-07-24 18:00:00 36.8 15 Noroeste 35 Norte 0 -- -- 24
2019-07-24 17:00:00 36.8 14 Norte 33 Norte 0 -- -- 25
2019-07-24 16:00:00 36.5 16 Nordeste 30 Norte 0 -- -- 26
2019-07-24 15:00:00 36.5 11 Norte 24 Noroeste 0 -- -- 26
2019-07-24 14:00:00 34.7 8 Nordeste 18 Norte 0 -- -- 27
2019-07-24 13:00:00 33.2 7 Nordeste 15 Nordeste 0 -- -- 29
2019-07-24 12:00:00 30.8 6 Norte 13 Nordeste 0 -- -- 35
2019-07-24 11:00:00 28.1 4 Nordeste 10 Nordeste 0 -- -- 40
2019-07-24 10:00:00 25.7 4 Este 8 Norte 0 -- -- 46
2019-07-24 09:00:00 22.8 3 Noroeste 10 Norte 0 -- -- 52
2019-07-24 08:00:00 21.1 5 Norte 10 Noroeste 0 -- -- 57
2019-07-24 07:00:00 21.5 7 Noroeste 13 Noroeste 0 -- -- 54
2019-07-24 06:00:00 22.5 7 Sudoeste 12 Sudoeste 0 -- -- 53
2019-07-24 05:00:00 23.1 5 Sudoeste 11 Sudoeste 0 -- -- 50
2019-07-24 04:00:00 23.4 3 Sudoeste 10 Este 0 -- -- 50
2019-07-24 03:00:00 25 2 Noroeste 18 Noroeste 0 -- -- 47
2019-07-24 02:00:00 26 11 Noroeste 24 Noroeste 0 -- -- 48
2019-07-24 01:00:00 27.3 15 Noroeste 24 Noroeste 0 -- -- 47
2019-07-24 00:00:00 28.8 16 Noroeste 23 Noroeste 0 -- -- 44
2019-07-23 23:00:00 30.4 18 Noroeste 29 Noroeste 0 -- -- 37
2019-07-23 22:00:00 32.1 16 Norte 27 Norte 0 -- -- 31
2019-07-23 21:00:00 34.1 16 Noroeste 32 Noroeste 0 -- -- 30
2019-07-23 20:00:00 35.5 18 Noroeste 35 Norte 0 -- -- 29
2019-07-23 19:00:00 36.1 20 Noroeste 35 Noroeste 0 -- -- 29
2019-07-23 18:00:00 36 21 Norte 36 Noroeste 0 -- -- 30
2019-07-23 17:00:00 36.8 21 Noroeste 36 Norte 0 -- -- 28
2019-07-23 16:00:00 36.6 12 Norte 28 Noroeste 0 -- -- 28
2019-07-23 15:00:00 35.7 12 Noroeste 27 Noroeste 0 -- -- 30
2019-07-23 14:00:00 34 11 Norte 27 Noroeste 0 -- -- 32
2019-07-23 13:00:00 32.9 11 Noroeste 21 Oeste 0 -- -- 34
2019-07-23 12:00:00 31.9 9 Oeste 23 Sudoeste 0 -- -- 36
2019-07-23 11:00:00 29.7 12 Sur 21 Sur 0 -- -- 42
2019-07-23 10:00:00 25.7 8 Este 11 Este 0 -- -- 40
2019-07-23 09:00:00 22.8 4 Sur 13 Sur 0 -- -- 44
2019-07-23 08:00:00 22.6 10 Sur 12 Sur 0 -- -- 44
2019-07-23 07:00:00 23.1 6 Nordeste 12 Norte 0 -- -- 43
2019-07-23 06:00:00 23.9 6 Sudeste 11 Sudeste 0 -- -- 41
2019-07-23 05:00:00 24.7 6 Sur 9 Oeste 0 -- -- 48
2019-07-23 04:00:00 26.1 10 Oeste 22 Oeste 0 -- -- 46
2019-07-23 03:00:00 27.2 12 Noroeste 26 Noroeste 0 -- -- 45
2019-07-23 02:00:00 28.4 10 Noroeste 24 Noroeste 0 -- -- 41
2019-07-23 01:00:00 29.8 14 Noroeste 26 Noroeste 0 -- -- 36
2019-07-23 00:00:00 31.3 12 Noroeste 26 Noroeste 0 -- -- 30
2019-07-22 23:00:00 32.3 8 Noroeste 17 Noroeste 0 -- -- 24
2019-07-22 22:00:00 34 10 Noroeste 25 Norte 0 -- -- 23
2019-07-22 21:00:00 36.2 17 Noroeste 28 Noroeste 0 -- -- 20
2019-07-22 20:00:00 38.9 5 Norte 19 Noroeste 0 -- -- 20
2019-07-22 19:00:00 39.3 11 Sudoeste 21 Noroeste 0 -- -- 20
2019-07-22 18:00:00 39.1 10 Norte 19 Noroeste 0 -- -- 20
2019-07-22 17:00:00 38.8 8 Noroeste 20 Nordeste 0 -- -- 20
2019-07-22 16:00:00 37.9 8 Este 22 Este 0 -- -- 21
2019-07-22 15:00:00 36.9 8 Este 17 Este 0 -- -- 21
2019-07-22 14:00:00 35.6 5 Sudeste 14 Nordeste 0 -- -- 23
2019-07-22 13:00:00 33.2 6 Nordeste 14 Nordeste 0 -- -- 29
2019-07-22 12:00:00 30.9 9 Nordeste 17 Norte 0 -- -- 32
2019-07-22 11:00:00 29.1 7 Norte 13 Nordeste 0 -- -- 37
2019-07-22 10:00:00 26.4 9 Nordeste 13 Norte 0 -- -- 43
2019-07-22 09:00:00 24.9 2 Sur 8 Sur 0 -- -- 42
2019-07-22 08:00:00 22.3 7 Sudeste 9 Sudeste 0 -- -- 43
2019-07-22 07:00:00 22.1 3 Sudeste 8 Oeste 0 -- -- 45
2019-07-22 06:00:00 22.8 7 Oeste 11 Noroeste 0 -- -- 44
2019-07-22 05:00:00 23.6 10 Oeste 12 Oeste 0 -- -- 44
2019-07-22 04:00:00 24.8 7 Noroeste 14 Oeste 0 -- -- 44
2019-07-22 03:00:00 25.8 8 Oeste 17 Noroeste 0 -- -- 43
2019-07-22 02:00:00 26.9 15 Noroeste 24 Noroeste 0 -- -- 42
2019-07-22 01:00:00 27.7 14 Noroeste 24 Noroeste 0 -- -- 39
2019-07-22 00:00:00 29.3 14 Noroeste 22 Noroeste 0 -- -- 29
2019-07-21 23:00:00 30.3 11 Noroeste 14 Noroeste 0 -- -- 24
2019-07-21 22:00:00 32.2 9 Noroeste 14 Norte 0 -- -- 22
2019-07-21 21:00:00 34.8 10 Norte 21 Norte 0 -- -- 20
2019-07-21 20:00:00 36.1 14 Norte 26 Norte 0 -- -- 17
2019-07-21 19:00:00 36.7 15 Norte 30 Norte 0 -- -- 17
2019-07-21 18:00:00 37.1 13 Norte 24 Norte 0 -- -- 18
2019-07-21 17:00:00 37 13 Norte 26 Noroeste 0 -- -- 20
2019-07-21 16:00:00 36.3 14 Noroeste 24 Noroeste 0 -- -- 21
2019-07-21 15:00:00 35 10 Norte 20 Norte 0 -- -- 23
2019-07-21 14:00:00 33.8 10 Noroeste 18 Noroeste 0 -- -- 25
2019-07-21 13:00:00 30.8 8 Norte 13 Noroeste 0 -- -- 29
2019-07-21 12:00:00 26.8 5 Norte 10 Norte 0 -- -- 43
2019-07-21 11:00:00 23.7 3 Norte 10 Norte 0 -- -- 51
2019-07-21 10:00:00 21.2 4 Norte 10 Noroeste 0 -- -- 57
2019-07-21 09:00:00 19.5 6 Noroeste 12 Noroeste 0 -- -- 62
2019-07-21 08:00:00 18.6 8 Noroeste 16 Noroeste 0 -- -- 63
2019-07-21 07:00:00 19 9 Noroeste 15 Noroeste 0 -- -- 64
2019-07-21 06:00:00 20.1 5 Noroeste 10 Noroeste 0 -- -- 60
2019-07-21 05:00:00 21 6 Noroeste 18 Noroeste 0 -- -- 59
2019-07-21 04:00:00 22 11 Noroeste 23 Noroeste 0 -- -- 57
2019-07-21 03:00:00 23 16 Noroeste 27 Noroeste 0 -- -- 55
2019-07-21 02:00:00 24.5 19 Noroeste 30 Noroeste 0 -- -- 50
2019-07-21 01:00:00 26 22 Noroeste 33 Noroeste 0 -- -- 48
2019-07-21 00:00:00 27.9 24 Noroeste 37 Noroeste 0 -- -- 43
2019-07-20 23:00:00 30.2 21 Noroeste 31 Noroeste 0 -- -- 37
2019-07-20 22:00:00 32.4 12 Norte 27 Noroeste 0 -- -- 25
2019-07-20 21:00:00 34.5 15 Norte 31 Norte 0 -- -- 21
2019-07-20 20:00:00 36.1 12 Norte 30 Norte 0 -- -- 21
2019-07-20 19:00:00 36.5 18 Norte 32 Norte 0 -- -- 20
2019-07-20 18:00:00 37.1 15 Noroeste 36 Noroeste 0 -- -- 21
2019-07-20 17:00:00 37 15 Noroeste 30 Norte 0 -- -- 22
2019-07-20 16:00:00 35.7 14 Norte 30 Noroeste 0 -- -- 23
2019-07-20 15:00:00 34.9 12 Norte 24 Noroeste 0 -- -- 24
2019-07-20 14:00:00 33.4 10 Noroeste 22 Noroeste 0 -- -- 28
2019-07-20 13:00:00 30.8 9 Norte 19 Norte 0 -- -- 34
2019-07-20 12:00:00 28.7 10 Norte 22 Noroeste 0 -- -- 40
2019-07-20 11:00:00 26.8 12 Noroeste 17 Noroeste 0 -- -- 42
2019-07-20 10:00:00 24.1 9 Noroeste 18 Noroeste 0 -- -- 49
2019-07-20 09:00:00 21.5 10 Noroeste 19 Noroeste 0 -- -- 57
2019-07-20 08:00:00 20.2 13 Noroeste 19 Noroeste 0 -- -- 60
2019-07-20 07:00:00 20.9 10 Noroeste 16 Noroeste 0 -- -- 55
2019-07-20 06:00:00 21.8 13 Noroeste 19 Noroeste 0 -- -- 55
2019-07-20 05:00:00 22.9 11 Noroeste 17 Noroeste 0 -- -- 53
2019-07-20 04:00:00 23.9 6 Noroeste 13 Noroeste 0 -- -- 50
2019-07-20 03:00:00 25.3 11 Noroeste 20 Noroeste 0 -- -- 46
2019-07-20 02:00:00 26.6 14 Noroeste 23 Noroeste 0 -- -- 43
2019-07-20 01:00:00 28 17 Noroeste 30 Noroeste 0 -- -- 39
2019-07-20 00:00:00 29.4 18 Noroeste 28 Noroeste 0 -- -- 37
2019-07-19 23:00:00 31 18 Noroeste 33 Noroeste 0 -- -- 35
2019-07-19 22:00:00 33.4 17 Norte 30 Noroeste 0 -- -- 31
2019-07-19 21:00:00 35.5 14 Norte 23 Noroeste 0 -- -- 24
2019-07-19 20:00:00 36.8 15 Norte 30 Noroeste 0 -- -- 23
2019-07-19 19:00:00 37.2 20 Norte 33 Noroeste 0 -- -- 23
2019-07-19 18:00:00 38 16 Norte 36 Norte 0 -- -- 23
2019-07-19 17:00:00 39.2 10 Oeste 22 Sudoeste 0 -- -- 23
2019-07-19 16:00:00 37.8 12 Sudoeste 27 Sudoeste 0 -- -- 22
2019-07-19 15:00:00 36.8 10 Norte 23 Sur 0 -- -- 23
2019-07-19 14:00:00 36.5 10 Sudoeste 22 Sudoeste 0 -- -- 25
2019-07-19 13:00:00 34.8 4 Sudoeste 16 Sudoeste 0 -- -- 27
2019-07-19 12:00:00 31.9 6 Sudoeste 14 Sudoeste 0 -- -- 31
2019-07-19 11:00:00 29.5 2 Sur 9 Nordeste 0 -- -- 35
2019-07-19 10:00:00 27 3 Sur 6 Sudeste 0 -- -- 38
2019-07-19 09:00:00 23.7 3 Sur 9 Sur 0 -- -- 44
2019-07-19 08:00:00 20.8 4 Sur 9 Sur 0 -- -- 49
2019-07-19 07:00:00 21.1 3 Sudeste 9 Noroeste 0 -- -- 48
2019-07-19 06:00:00 22.5 9 Noroeste 12 Noroeste 0 -- -- 48
2019-07-19 05:00:00 22.1 4 Noroeste 8 Noroeste 0 -- -- 47
2019-07-19 04:00:00 23.3 5 Noroeste 14 Oeste 0 -- -- 46
2019-07-19 03:00:00 24.5 8 Noroeste 14 Noroeste 0 -- -- 44
2019-07-19 02:00:00 25.2 5 Oeste 17 Noroeste 0 -- -- 40
2019-07-19 01:00:00 27.1 12 Noroeste 22 Noroeste 0 -- -- 39
2019-07-19 00:00:00 28.3 12 Noroeste 22 Norte 0 -- -- 37
2019-07-18 23:00:00 29.3 10 Norte 13 Nordeste 0 -- -- 29
2019-07-18 22:00:00 31.2 7 Nordeste 8 Nordeste 0 -- -- 27
2019-07-18 21:00:00 33.7 7 Este 15 Este 0 -- -- 24
2019-07-18 20:00:00 35 7 Este 19 Nordeste 0 -- -- 22
2019-07-18 19:00:00 35.3 12 Norte 22 Nordeste 0 -- -- 20
2019-07-18 18:00:00 34.7 10 Nordeste 25 Nordeste 0 -- -- 28
2019-07-18 17:00:00 34.3 10 Norte 24 Norte 0 -- -- 31
2019-07-18 16:00:00 33.7 8 Norte 20 Noroeste 0 -- -- 33
2019-07-18 15:00:00 32.7 7 Norte 17 Oeste 0 -- -- 36
2019-07-18 14:00:00 31.3 6 Noroeste 17 Noroeste 0 -- -- 40
2019-07-18 13:00:00 29.2 6 Norte 16 Noroeste 0 -- -- 45
2019-07-18 12:00:00 26.6 8 Noroeste 15 Norte 0 -- -- 51
2019-07-18 11:00:00 24.3 5 Noroeste 10 Noroeste 0 -- -- 56
2019-07-18 10:00:00 21.4 4 Noroeste 12 Norte 0 -- -- 65
2019-07-18 09:00:00 19.4 9 Noroeste 13 Norte 0 -- -- 72
2019-07-18 08:00:00 17.8 6 Noroeste 13 Norte 0 -- -- 77
2019-07-18 07:00:00 17.8 9 Noroeste 15 Noroeste 0 -- -- 76
2019-07-18 06:00:00 18.6 8 Noroeste 15 Noroeste 0 -- -- 74
2019-07-18 05:00:00 19.1 10 Oeste 18 Noroeste 0 -- -- 71
2019-07-18 04:00:00 19.9 13 Noroeste 19 Noroeste 0 -- -- 69
2019-07-18 03:00:00 21 9 Noroeste 19 Noroeste 0 -- -- 66
2019-07-18 02:00:00 22.1 12 Noroeste 24 Noroeste 0 -- -- 63
2019-07-18 01:00:00 23.3 19 Noroeste 31 Noroeste 0 -- -- 60
2019-07-18 00:00:00 25.1 19 Noroeste 27 Noroeste 0 -- -- 56